createdAt,value
2023-03-27T00:00:06.891Z,999.82
2023-03-27T00:01:06.912Z,999.84
2023-03-27T00:02:06.925Z,999.86
2023-03-27T00:03:07.056Z,999.88
2023-03-27T00:04:06.989Z,999.89
2023-03-27T00:05:06.857Z,999.91
2023-03-27T00:06:06.840Z,999.92
2023-03-27T00:07:06.826Z,999.94
2023-03-27T00:08:06.854Z,999.95
2023-03-27T00:09:06.842Z,999.97
2023-03-27T00:10:06.820Z,1000.01
2023-03-27T00:11:06.770Z,1000.02
2023-03-27T00:12:06.782Z,1000.04
2023-03-27T00:13:06.773Z,1000.05
2023-03-27T00:14:06.811Z,1000.05
2023-03-27T00:15:06.745Z,1000.06
2023-03-27T00:16:06.736Z,1000.05
2023-03-27T00:17:06.728Z,1000.06
2023-03-27T00:18:06.796Z,1000.07
2023-03-27T00:19:06.763Z,1000.10
2023-03-27T00:20:06.707Z,1000.11
2023-03-27T00:21:06.724Z,1000.13
2023-03-27T00:22:06.668Z,1000.14
2023-03-27T00:23:06.655Z,1000.17
2023-03-27T00:24:06.690Z,1000.20
2023-03-27T00:25:06.649Z,1000.23
2023-03-27T00:26:06.637Z,1000.25
2023-03-27T00:27:06.623Z,1000.27
2023-03-27T00:28:06.659Z,1000.28
2023-03-27T00:29:06.628Z,1000.29
2023-03-27T00:30:06.587Z,1000.30
2023-03-27T00:31:06.612Z,1000.32
2023-03-27T00:32:06.586Z,1000.32
2023-03-27T00:33:06.636Z,1000.32
2023-03-27T00:34:06.610Z,1000.34
2023-03-27T00:35:06.573Z,1000.36
2023-03-27T00:36:06.584Z,1000.38
2023-03-27T00:37:06.529Z,1000.41
2023-03-27T00:38:06.530Z,1000.43
2023-03-27T00:39:06.533Z,1000.45
2023-03-27T00:40:06.510Z,1000.45
2023-03-27T00:41:06.489Z,1000.46
2023-03-27T00:42:06.462Z,1000.46
2023-03-27T00:43:06.453Z,1000.47
2023-03-27T00:44:06.465Z,1000.48
2023-03-27T00:45:06.465Z,1000.49
2023-03-27T00:46:06.457Z,1000.50
2023-03-27T00:47:06.409Z,1000.51
2023-03-27T00:48:06.578Z,1000.52
2023-03-27T00:49:06.416Z,1000.52
2023-03-27T00:50:06.403Z,1000.51
2023-03-27T00:51:06.373Z,1000.52
2023-03-27T00:52:06.387Z,1000.55
2023-03-27T00:53:06.350Z,1000.58
2023-03-27T00:54:06.349Z,1000.60
2023-03-27T00:55:06.376Z,1000.61
2023-03-27T00:56:06.324Z,1000.62
2023-03-27T00:57:06.351Z,1000.63
2023-03-27T00:58:06.391Z,1000.65
2023-03-27T00:59:06.311Z,1000.67
2023-03-27T01:00:07.638Z,1000.68
2023-03-27T01:01:06.310Z,1000.69
2023-03-27T01:02:06.273Z,1000.70
2023-03-27T01:03:06.323Z,1000.70
2023-03-27T01:04:06.286Z,1000.71
2023-03-27T01:05:06.257Z,1000.71
2023-03-27T01:06:06.226Z,1000.72
2023-03-27T01:07:06.218Z,1000.74
2023-03-27T01:08:06.192Z,1000.75
2023-03-27T01:09:06.216Z,1000.76
2023-03-27T01:10:06.202Z,1000.77
2023-03-27T01:11:06.189Z,1000.78
2023-03-27T01:12:06.161Z,1000.79
2023-03-27T01:13:06.195Z,1000.79
2023-03-27T01:14:06.131Z,1000.79
2023-03-27T01:15:06.181Z,1000.81
2023-03-27T01:16:06.134Z,1000.83
2023-03-27T01:17:06.117Z,1000.86
2023-03-27T01:18:06.130Z,1000.87
2023-03-27T01:19:06.099Z,1000.90
2023-03-27T01:20:06.092Z,1000.91
2023-03-27T01:21:06.068Z,1000.92
2023-03-27T01:22:06.051Z,1000.94
2023-03-27T01:23:06.036Z,1000.96
2023-03-27T01:24:06.042Z,1000.97
2023-03-27T01:25:06.036Z,1000.99
2023-03-27T01:26:06.033Z,1001.00
2023-03-27T01:27:06.020Z,1001.01
2023-03-27T01:28:05.986Z,1001.03
2023-03-27T01:29:05.975Z,1001.04
2023-03-27T01:30:05.994Z,1001.05
2023-03-27T01:31:05.984Z,1001.06
2023-03-27T01:32:05.935Z,1001.06
2023-03-27T01:33:05.976Z,1001.06
2023-03-27T01:34:05.939Z,1001.07
2023-03-27T01:35:05.919Z,1001.09
2023-03-27T01:36:05.957Z,1001.12
2023-03-27T01:37:05.890Z,1001.12
2023-03-27T01:38:05.961Z,1001.12
2023-03-27T01:39:05.885Z,1001.11
2023-03-27T01:40:05.878Z,1001.09
2023-03-27T01:41:05.856Z,1001.10
2023-03-27T01:42:05.865Z,1001.11
2023-03-27T01:43:05.826Z,1001.11
2023-03-27T01:44:05.830Z,1001.12
2023-03-27T01:45:05.826Z,1001.13
2023-03-27T01:46:05.823Z,1001.14
2023-03-27T01:47:05.802Z,1001.15
2023-03-27T01:48:05.894Z,1001.16
2023-03-27T01:49:05.758Z,1001.18
2023-03-27T01:50:05.798Z,1001.20
2023-03-27T01:51:05.766Z,1001.22
2023-03-27T01:52:05.730Z,1001.23
2023-03-27T01:53:05.748Z,1001.23
2023-03-27T01:54:05.740Z,1001.22
2023-03-27T01:55:05.703Z,1001.21
2023-03-27T01:56:05.724Z,1001.21
2023-03-27T01:57:05.778Z,1001.22
2023-03-27T01:58:05.714Z,1001.24
2023-03-27T01:59:05.665Z,1001.27
2023-03-27T02:00:17.268Z,1001.30
2023-03-27T02:01:05.940Z,1001.32
2023-03-27T02:02:05.641Z,1001.33
2023-03-27T02:03:05.629Z,1001.35
2023-03-27T02:04:05.609Z,1001.36
2023-03-27T02:05:05.628Z,1001.37
2023-03-27T02:06:05.628Z,1001.39
2023-03-27T02:07:05.573Z,1001.40
2023-03-27T02:08:05.565Z,1001.41
2023-03-27T02:09:05.574Z,1001.43
2023-03-27T02:10:05.551Z,1001.44
2023-03-27T02:11:05.598Z,1001.46
2023-03-27T02:12:05.530Z,1001.48
2023-03-27T02:13:05.528Z,1001.50
2023-03-27T02:14:05.510Z,1001.50
2023-03-27T02:15:24.810Z,1001.52
2023-03-27T02:16:05.554Z,1001.53
2023-03-27T02:17:05.490Z,1001.54
2023-03-27T02:18:05.758Z,1001.55
2023-03-27T02:19:05.462Z,1001.55
2023-03-27T02:20:05.460Z,1001.55
2023-03-27T02:21:05.460Z,1001.55
2023-03-27T02:22:05.425Z,1001.57
2023-03-27T02:23:05.438Z,1001.58
2023-03-27T02:24:05.446Z,1001.58
2023-03-27T02:25:05.394Z,1001.57
2023-03-27T02:26:05.426Z,1001.57
2023-03-27T02:27:05.381Z,1001.57
2023-03-27T02:28:05.363Z,1001.57
2023-03-27T02:29:05.355Z,1001.57
2023-03-27T02:30:05.361Z,1001.59
2023-03-27T02:31:05.521Z,1001.62
2023-03-27T02:32:05.360Z,1001.63
2023-03-27T02:33:05.368Z,1001.65
2023-03-27T02:34:05.298Z,1001.68
2023-03-27T02:35:05.284Z,1001.70
2023-03-27T02:36:05.402Z,1001.73
2023-03-27T02:37:05.289Z,1001.75
2023-03-27T02:38:05.249Z,1001.77
2023-03-27T02:39:05.251Z,1001.78
2023-03-27T02:40:05.282Z,1001.79
2023-03-27T02:41:05.261Z,1001.81
2023-03-27T02:42:05.256Z,1001.83
2023-03-27T02:43:05.210Z,1001.84
2023-03-27T02:44:05.220Z,1001.84
2023-03-27T02:45:05.208Z,1001.84
2023-03-27T02:46:05.261Z,1001.87
2023-03-27T02:47:05.194Z,1001.90
2023-03-27T02:48:05.233Z,1001.90
2023-03-27T02:49:05.157Z,1001.90
2023-03-27T02:50:05.144Z,1001.91
2023-03-27T02:51:05.136Z,1001.93
2023-03-27T02:52:05.148Z,1001.94
2023-03-27T02:53:05.114Z,1001.97
2023-03-27T02:54:05.121Z,1002.00
2023-03-27T02:55:05.118Z,1002.00
2023-03-27T02:56:05.079Z,1002.04
2023-03-27T02:57:05.106Z,1002.05
2023-03-27T02:58:05.086Z,1002.04
2023-03-27T02:59:05.059Z,1002.03
2023-03-27T03:00:05.048Z,1002.03
2023-03-27T03:01:05.061Z,1002.04
2023-03-27T03:02:05.121Z,1002.05
2023-03-27T03:03:05.183Z,1002.06
2023-03-27T03:04:04.990Z,1002.06
2023-03-27T03:05:04.972Z,1002.08
2023-03-27T03:06:04.961Z,1002.09
2023-03-27T03:07:04.970Z,1002.10
2023-03-27T03:08:05.032Z,1002.13
2023-03-27T03:09:04.966Z,1002.14
2023-03-27T03:10:04.959Z,1002.17
2023-03-27T03:11:04.920Z,1002.19
2023-03-27T03:12:04.918Z,1002.21
2023-03-27T03:13:05.049Z,1002.22
2023-03-27T03:14:04.891Z,1002.23
2023-03-27T03:15:04.906Z,1002.24
2023-03-27T03:16:04.859Z,1002.26
2023-03-27T03:17:04.850Z,1002.28
2023-03-27T03:18:04.917Z,1002.30
2023-03-27T03:19:04.831Z,1002.32
2023-03-27T03:20:04.842Z,1002.33
2023-03-27T03:21:04.863Z,1002.34
2023-03-27T03:22:04.796Z,1002.36
2023-03-27T03:23:04.814Z,1002.37
2023-03-27T03:24:04.780Z,1002.38
2023-03-27T03:25:04.779Z,1002.40
2023-03-27T03:26:04.756Z,1002.42
2023-03-27T03:27:04.757Z,1002.43
2023-03-27T03:28:04.752Z,1002.44
2023-03-27T03:29:04.744Z,1002.46
2023-03-27T03:30:04.699Z,1002.46
2023-03-27T03:31:04.735Z,1002.48
2023-03-27T03:32:04.693Z,1002.48
2023-03-27T03:33:04.787Z,1002.50
2023-03-27T03:34:04.663Z,1002.50
2023-03-27T03:35:04.703Z,1002.51
2023-03-27T03:36:04.660Z,1002.53
2023-03-27T03:37:04.657Z,1002.54
2023-03-27T03:38:04.622Z,1002.56
2023-03-27T03:39:04.647Z,1002.59
2023-03-27T03:40:04.645Z,1002.62
2023-03-27T03:41:04.603Z,1002.63
2023-03-27T03:42:04.602Z,1002.64
2023-03-27T03:43:04.589Z,1002.65
2023-03-27T03:44:04.642Z,1002.65
2023-03-27T03:45:04.546Z,1002.67
2023-03-27T03:46:04.565Z,1002.67
2023-03-27T03:47:05.310Z,1002.68
2023-03-27T03:48:04.593Z,1002.69
2023-03-27T03:49:04.581Z,1002.70
2023-03-27T03:50:04.498Z,1002.69
2023-03-27T03:51:04.487Z,1002.70
2023-03-27T03:52:05.017Z,1002.71
2023-03-27T03:53:04.500Z,1002.72
2023-03-27T03:54:04.478Z,1002.75
2023-03-27T03:55:04.489Z,1002.77
2023-03-27T03:56:04.424Z,1002.81
2023-03-27T03:57:04.468Z,1002.83
2023-03-27T03:58:04.430Z,1002.83
2023-03-27T03:59:04.436Z,1002.85
2023-03-27T04:00:04.405Z,1002.86
2023-03-27T04:01:04.393Z,1002.87
2023-03-27T04:02:04.404Z,1002.88
2023-03-27T04:03:04.547Z,1002.88
2023-03-27T04:04:04.354Z,1002.88
2023-03-27T04:05:11.811Z,1002.88
2023-03-27T04:06:04.329Z,1002.89
2023-03-27T04:07:04.306Z,1002.88
2023-03-27T04:08:04.310Z,1002.88
2023-03-27T04:09:04.316Z,1002.86
2023-03-27T04:10:04.280Z,1002.87
2023-03-27T04:11:04.288Z,1002.89
2023-03-27T04:12:04.287Z,1002.90
2023-03-27T04:13:04.255Z,1002.91
2023-03-27T04:14:04.253Z,1002.94
2023-03-27T04:15:04.241Z,1002.95
2023-03-27T04:16:04.236Z,1002.96
2023-03-27T04:17:04.217Z,1002.98
2023-03-27T04:18:04.295Z,1002.99
2023-03-27T04:19:04.178Z,1003.00
2023-03-27T04:20:04.180Z,1003.01
2023-03-27T04:21:04.184Z,1003.02
2023-03-27T04:22:04.165Z,1003.02
2023-03-27T04:23:04.151Z,1003.00
2023-03-27T04:24:04.123Z,1003.02
2023-03-27T04:25:04.153Z,1003.02
2023-03-27T04:26:04.244Z,1003.03
2023-03-27T04:27:04.124Z,1003.08
2023-03-27T04:28:04.082Z,1003.12
2023-03-27T04:29:04.098Z,1003.12
2023-03-27T04:30:04.104Z,1003.14
2023-03-27T04:31:04.078Z,1003.16
2023-03-27T04:32:04.043Z,1003.19
2023-03-27T04:33:06.367Z,1003.21
2023-03-27T04:34:04.022Z,1003.22
2023-03-27T04:35:04.046Z,1003.24
2023-03-27T04:36:06.341Z,1003.27
2023-03-27T04:37:03.985Z,1003.29
2023-03-27T04:38:03.996Z,1003.32
2023-03-27T04:39:03.981Z,1003.35
2023-03-27T04:40:04.024Z,1003.37
2023-03-27T04:41:03.950Z,1003.38
2023-03-27T04:42:03.970Z,1003.39
2023-03-27T04:43:03.929Z,1003.40
2023-03-27T04:44:03.911Z,1003.41
2023-03-27T04:45:03.934Z,1003.41
2023-03-27T04:46:03.909Z,1003.42
2023-03-27T04:47:03.969Z,1003.42
2023-03-27T04:48:03.845Z,1003.43
2023-03-27T04:49:03.824Z,1003.43
2023-03-27T04:50:03.849Z,1003.43
2023-03-27T04:51:03.815Z,1003.45
2023-03-27T04:52:03.819Z,1003.45
2023-03-27T04:53:03.788Z,1003.48
2023-03-27T04:54:03.767Z,1003.50
2023-03-27T04:55:03.888Z,1003.51
2023-03-27T04:56:03.754Z,1003.52
2023-03-27T04:57:03.946Z,1003.52
2023-03-27T04:58:03.763Z,1003.53
2023-03-27T04:59:03.721Z,1003.53
2023-03-27T05:00:03.755Z,1003.56
2023-03-27T05:01:03.733Z,1003.56
2023-03-27T05:02:03.710Z,1003.56
2023-03-27T05:03:03.805Z,1003.58
2023-03-27T05:04:03.718Z,1003.59
2023-03-27T05:05:03.681Z,1003.59
2023-03-27T05:06:03.647Z,1003.61
2023-03-27T05:07:03.648Z,1003.60
2023-03-27T05:08:03.626Z,1003.61
2023-03-27T05:09:03.684Z,1003.60
2023-03-27T05:10:03.630Z,1003.61
2023-03-27T05:11:03.622Z,1003.62
2023-03-27T05:12:03.629Z,1003.61
2023-03-27T05:13:03.618Z,1003.63
2023-03-27T05:14:03.549Z,1003.63
2023-03-27T05:15:03.602Z,1003.64
2023-03-27T05:16:03.603Z,1003.62
2023-03-27T05:17:03.537Z,1003.62
2023-03-27T05:18:03.630Z,1003.64
2023-03-27T05:19:03.526Z,1003.64
2023-03-27T05:20:03.567Z,1003.64
2023-03-27T05:21:03.527Z,1003.68
2023-03-27T05:22:03.509Z,1003.72
2023-03-27T05:23:03.475Z,1003.74
2023-03-27T05:24:03.468Z,1003.79
2023-03-27T05:25:03.462Z,1003.83
2023-03-27T05:26:03.498Z,1003.86
2023-03-27T05:27:03.433Z,1003.92
2023-03-27T05:28:04.095Z,1003.94
2023-03-27T05:29:03.439Z,1003.96
2023-03-27T05:30:03.415Z,1004.05
2023-03-27T05:31:03.557Z,1004.09
2023-03-27T05:32:03.402Z,1004.10
2023-03-27T05:33:03.457Z,1004.13
2023-03-27T05:34:03.393Z,1004.12
2023-03-27T05:35:03.389Z,1004.14
2023-03-27T05:36:03.379Z,1004.14
2023-03-27T05:37:03.327Z,1004.16
2023-03-27T05:38:03.372Z,1004.14
2023-03-27T05:39:03.361Z,1004.17
2023-03-27T05:40:03.311Z,1004.20
2023-03-27T05:41:03.351Z,1004.20
2023-03-27T05:42:03.286Z,1004.20
2023-03-27T05:43:03.267Z,1004.20
2023-03-27T05:44:03.313Z,1004.21
2023-03-27T05:45:03.282Z,1004.20
2023-03-27T05:46:03.261Z,1004.21
2023-03-27T05:47:03.223Z,1004.21
2023-03-27T05:48:03.243Z,1004.22
2023-03-27T05:49:03.217Z,1004.24
2023-03-27T05:50:03.205Z,1004.25
2023-03-27T05:51:03.225Z,1004.24
2023-03-27T05:52:03.178Z,1004.23
2023-03-27T05:53:03.193Z,1004.22
2023-03-27T05:54:03.159Z,1004.22
2023-03-27T05:55:03.157Z,1004.21
2023-03-27T05:56:03.699Z,1004.23
2023-03-27T05:57:03.188Z,1004.26
2023-03-27T05:58:03.132Z,1004.27
2023-03-27T05:59:03.138Z,1004.26
2023-03-27T06:00:03.153Z,1004.27
2023-03-27T06:01:03.117Z,1004.27
2023-03-27T06:02:03.112Z,1004.28
2023-03-27T06:03:03.212Z,1004.30
2023-03-27T06:04:03.115Z,1004.31
2023-03-27T06:05:03.069Z,1004.32
2023-03-27T06:06:03.073Z,1004.33
2023-03-27T06:07:03.059Z,1004.36
2023-03-27T06:08:03.019Z,1004.34
2023-03-27T06:09:02.998Z,1004.36
2023-03-27T06:10:03.013Z,1004.36
2023-03-27T06:11:03.006Z,1004.36
2023-03-27T06:12:02.983Z,1004.37
2023-03-27T06:13:02.961Z,1004.39
2023-03-27T06:14:02.948Z,1004.40
2023-03-27T06:15:02.940Z,1004.41
2023-03-27T06:16:02.955Z,1004.41
2023-03-27T06:17:02.946Z,1004.44
2023-03-27T06:18:02.961Z,1004.44
2023-03-27T06:19:02.916Z,1004.44
2023-03-27T06:20:02.877Z,1004.46
2023-03-27T06:21:02.901Z,1004.47
2023-03-27T06:22:02.887Z,1004.47
2023-03-27T06:23:02.868Z,1004.48
2023-03-27T06:24:02.836Z,1004.48
2023-03-27T06:25:02.833Z,1004.49
2023-03-27T06:26:02.856Z,1004.50
2023-03-27T06:27:02.844Z,1004.53
2023-03-27T06:28:02.818Z,1004.55
2023-03-27T06:29:08.073Z,1004.59
2023-03-27T06:30:02.800Z,1004.61
2023-03-27T06:31:02.870Z,1004.61
2023-03-27T06:32:02.789Z,1004.63
2023-03-27T06:33:02.759Z,1004.62
2023-03-27T06:34:02.739Z,1004.62
2023-03-27T06:35:02.763Z,1004.63
2023-03-27T06:36:02.781Z,1004.62
2023-03-27T06:37:02.718Z,1004.64
2023-03-27T06:38:02.728Z,1004.63
2023-03-27T06:39:02.699Z,1004.63
2023-03-27T06:40:02.720Z,1004.64
2023-03-27T06:41:02.810Z,1004.65
2023-03-27T06:42:02.698Z,1004.64
2023-03-27T06:43:02.670Z,1004.64
2023-03-27T06:44:02.641Z,1004.66
2023-03-27T06:45:02.709Z,1004.67
2023-03-27T06:46:02.638Z,1004.67
2023-03-27T06:47:02.673Z,1004.70
2023-03-27T06:48:16.073Z,1004.69
2023-03-27T06:49:02.585Z,1004.69
2023-03-27T06:50:02.567Z,1004.67
2023-03-27T06:51:02.580Z,1004.69
2023-03-27T06:52:02.602Z,1004.69
2023-03-27T06:53:04.253Z,1004.70
2023-03-27T06:54:02.575Z,1004.70
2023-03-27T06:55:02.551Z,1004.72
2023-03-27T06:56:02.528Z,1004.70
2023-03-27T06:57:09.008Z,1004.73
2023-03-27T06:58:02.516Z,1004.75
2023-03-27T06:59:02.474Z,1004.77
2023-03-27T07:00:02.821Z,1004.78
2023-03-27T07:01:02.469Z,1004.79
2023-03-27T07:02:02.488Z,1004.80
2023-03-27T07:03:02.458Z,1004.81
2023-03-27T07:04:02.551Z,1004.84
2023-03-27T07:05:05.195Z,1004.87
2023-03-27T07:06:02.583Z,1004.87
2023-03-27T07:07:02.439Z,1004.88
2023-03-27T07:08:14.778Z,1004.89
2023-03-27T07:09:02.408Z,1004.93
2023-03-27T07:10:02.396Z,1004.93
2023-03-27T07:11:11.654Z,1004.94
2023-03-27T07:12:02.377Z,1004.95
2023-03-27T07:13:02.341Z,1004.96
2023-03-27T07:14:02.327Z,1005.00
2023-03-27T07:15:02.347Z,1005.01
2023-03-27T07:16:02.349Z,1005.00
2023-03-27T07:17:02.323Z,1005.05
2023-03-27T07:18:02.359Z,1005.04
2023-03-27T07:19:02.640Z,1005.07
2023-03-27T07:20:02.283Z,1005.08
2023-03-27T07:21:02.289Z,1005.11
2023-03-27T07:22:02.320Z,1005.15
2023-03-27T07:23:02.236Z,1005.13
2023-03-27T07:24:02.413Z,1005.17
2023-03-27T07:25:02.315Z,1005.16
2023-03-27T07:26:02.202Z,1005.18
2023-03-27T07:27:02.252Z,1005.21
2023-03-27T07:28:04.283Z,1005.22
2023-03-27T07:29:02.246Z,1005.22
2023-03-27T07:30:02.217Z,1005.17
2023-03-27T07:31:02.130Z,1005.19
2023-03-27T07:32:06.930Z,1005.26
2023-03-27T07:33:02.241Z,1005.18
2023-03-27T07:34:02.351Z,1005.22
2023-03-27T07:35:02.100Z,1005.22
2023-03-27T07:36:02.117Z,1005.24
2023-03-27T07:37:02.081Z,1005.28
2023-03-27T07:38:02.084Z,1005.23
2023-03-27T07:39:02.070Z,1005.28
2023-03-27T07:40:02.042Z,1005.30
2023-03-27T07:41:02.033Z,1005.37
2023-03-27T07:42:02.067Z,1005.33
2023-03-27T07:43:02.051Z,1005.31
2023-03-27T07:44:02.028Z,1005.35
2023-03-27T07:45:04.193Z,1005.38
2023-03-27T07:46:02.070Z,1005.35
2023-03-27T07:47:01.994Z,1005.37
2023-03-27T07:48:02.043Z,1005.39
2023-03-27T07:49:01.965Z,1005.38
2023-03-27T07:50:01.944Z,1005.44
2023-03-27T07:52:01.933Z,1005.47
2023-03-27T07:53:01.970Z,1005.45
2023-03-27T07:54:01.907Z,1005.47
2023-03-27T07:55:01.893Z,1005.46
2023-03-27T07:56:01.890Z,1005.45
2023-03-27T07:57:01.962Z,1005.49
2023-03-27T07:58:03.554Z,1005.50
2023-03-27T07:59:01.856Z,1005.54
2023-03-27T08:00:01.832Z,1005.50
2023-03-27T08:01:01.847Z,1005.53
2023-03-27T08:02:01.853Z,1005.54
2023-03-27T08:03:01.922Z,1005.55
2023-03-27T08:04:01.948Z,1005.63
2023-03-27T08:05:01.835Z,1005.60
2023-03-27T08:06:01.806Z,1005.60
2023-03-27T08:07:01.767Z,1005.62
2023-03-27T08:08:01.803Z,1005.59
2023-03-27T08:09:02.973Z,1005.60
2023-03-27T08:10:01.736Z,1005.60
2023-03-27T08:11:01.734Z,1005.62
2023-03-27T08:12:01.708Z,1005.64
2023-03-27T08:13:01.738Z,1005.64
2023-03-27T08:14:01.720Z,1005.67
2023-03-27T08:15:01.688Z,1005.69
2023-03-27T08:16:01.693Z,1005.66
2023-03-27T08:17:14.672Z,1005.68
2023-03-27T08:18:01.712Z,1005.67
2023-03-27T08:19:01.648Z,1005.65
2023-03-27T08:20:01.629Z,1005.66
2023-03-27T08:21:01.610Z,1005.65
2023-03-27T08:22:01.616Z,1005.73
2023-03-27T08:23:01.649Z,1005.69
2023-03-27T08:24:01.578Z,1005.73
2023-03-27T08:25:01.599Z,1005.73
2023-03-27T08:26:01.557Z,1005.72
2023-03-27T08:27:01.556Z,1005.71
2023-03-27T08:28:01.562Z,1005.73
2023-03-27T08:29:01.548Z,1005.76
2023-03-27T08:30:01.538Z,1005.72
2023-03-27T08:31:02.418Z,1005.72
2023-03-27T08:32:01.504Z,1005.73
2023-03-27T08:33:01.569Z,1005.77
2023-03-27T08:34:01.486Z,1005.78
2023-03-27T08:35:01.471Z,1005.80
2023-03-27T08:36:01.502Z,1005.81
2023-03-27T08:37:01.447Z,1005.80
2023-03-27T08:38:01.473Z,1005.82
2023-03-27T08:39:01.422Z,1005.86
2023-03-27T08:40:01.430Z,1005.80
2023-03-27T08:41:01.406Z,1005.80
2023-03-27T08:42:01.410Z,1005.84
2023-03-27T08:43:01.405Z,1005.83
2023-03-27T08:44:01.402Z,1005.84
2023-03-27T08:45:01.392Z,1005.87
2023-03-27T08:46:01.414Z,1005.86
2023-03-27T08:47:01.342Z,1005.86
2023-03-27T08:48:01.384Z,1005.83
2023-03-27T08:49:01.346Z,1005.82
2023-03-27T08:50:01.320Z,1005.83
2023-03-27T08:51:01.292Z,1005.90
2023-03-27T08:52:01.325Z,1005.84
2023-03-27T08:53:01.310Z,1005.86
2023-03-27T08:54:01.313Z,1005.93
2023-03-27T08:55:01.300Z,1005.90
2023-03-27T08:56:01.265Z,1005.92
2023-03-27T08:57:01.277Z,1005.93
2023-03-27T08:58:01.268Z,1005.91
2023-03-27T08:59:01.249Z,1005.91
2023-03-27T09:00:01.235Z,1005.98
2023-03-27T09:01:01.216Z,1005.96
2023-03-27T09:02:01.286Z,1006.00
2023-03-27T09:03:01.273Z,1006.00
2023-03-27T09:04:01.337Z,1006.03
2023-03-27T09:05:01.177Z,1006.09
2023-03-27T09:06:01.168Z,1006.11
2023-03-27T09:07:01.617Z,1006.08
2023-03-27T09:08:01.130Z,1006.11
2023-03-27T09:09:01.130Z,1006.14
2023-03-27T09:10:01.131Z,1006.16
2023-03-27T09:11:01.085Z,1006.19
2023-03-27T09:12:01.111Z,1006.17
2023-03-27T09:13:01.065Z,1006.20
2023-03-27T09:14:01.100Z,1006.20
2023-03-27T09:15:01.059Z,1006.19
2023-03-27T09:16:01.146Z,1006.18
2023-03-27T09:17:01.037Z,1006.19
2023-03-27T09:18:01.089Z,1006.21
2023-03-27T09:19:01.024Z,1006.25
2023-03-27T09:20:01.046Z,1006.22
2023-03-27T09:21:01.010Z,1006.26
2023-03-27T09:22:00.969Z,1006.24
2023-03-27T09:23:00.968Z,1006.23
2023-03-27T09:24:01.010Z,1006.22
2023-03-27T09:25:00.951Z,1006.22
2023-03-27T09:26:00.943Z,1006.23
2023-03-27T09:27:07.050Z,1006.25
2023-03-27T09:28:00.977Z,1006.25
2023-03-27T09:29:00.938Z,1006.27
2023-03-27T09:30:05.333Z,1006.27
2023-03-27T09:31:00.916Z,1006.26
2023-03-27T09:32:00.869Z,1006.26
2023-03-27T09:33:00.956Z,1006.27
2023-03-27T09:34:00.881Z,1006.26
2023-03-27T09:35:00.827Z,1006.28
2023-03-27T09:36:01.185Z,1006.33
2023-03-27T09:37:00.868Z,1006.26
2023-03-27T09:38:00.813Z,1006.24
2023-03-27T09:39:00.838Z,1006.29
2023-03-27T09:40:00.792Z,1006.32
2023-03-27T09:41:00.761Z,1006.30
2023-03-27T09:42:00.787Z,1006.32
2023-03-27T09:43:00.745Z,1006.31
2023-03-27T09:44:00.773Z,1006.33
2023-03-27T09:45:00.781Z,1006.32
2023-03-27T09:46:00.724Z,1006.38
2023-03-27T09:47:00.758Z,1006.34
2023-03-27T09:48:00.707Z,1006.36
2023-03-27T09:49:00.723Z,1006.38
2023-03-27T09:50:00.739Z,1006.37
2023-03-27T09:51:00.674Z,1006.38
2023-03-27T09:52:00.681Z,1006.39
2023-03-27T09:53:00.647Z,1006.38
2023-03-27T09:54:00.642Z,1006.37
2023-03-27T09:55:00.667Z,1006.36
2023-03-27T09:56:03.012Z,1006.40
2023-03-27T09:57:00.625Z,1006.41
2023-03-27T09:58:00.608Z,1006.41
2023-03-27T09:59:00.586Z,1006.38
2023-03-27T10:00:00.607Z,1006.37
2023-03-27T10:01:00.585Z,1006.41
2023-03-27T10:02:00.552Z,1006.39
2023-03-27T10:03:00.634Z,1006.42
2023-03-27T10:04:00.555Z,1006.44
2023-03-27T10:05:00.639Z,1006.43
2023-03-27T10:06:00.520Z,1006.43
2023-03-27T10:07:00.515Z,1006.42
2023-03-27T10:08:00.518Z,1006.40
2023-03-27T10:09:00.476Z,1006.35
2023-03-27T10:10:00.497Z,1006.38
2023-03-27T10:11:00.501Z,1006.35
2023-03-27T10:12:00.472Z,1006.33
2023-03-27T10:13:00.443Z,1006.37
2023-03-27T10:14:00.442Z,1006.38
2023-03-27T10:15:01.608Z,1006.43
2023-03-27T10:16:00.413Z,1006.44
2023-03-27T10:17:00.457Z,1006.44
2023-03-27T10:18:00.469Z,1006.47
2023-03-27T10:19:00.403Z,1006.46
2023-03-27T10:20:00.417Z,1006.52
2023-03-27T10:21:00.349Z,1006.46
2023-03-27T10:22:00.343Z,1006.45
2023-03-27T10:23:00.448Z,1006.43
2023-03-27T10:24:00.347Z,1006.46
2023-03-27T10:25:00.380Z,1006.47
2023-03-27T10:26:00.356Z,1006.53
2023-03-27T10:27:00.291Z,1006.52
2023-03-27T10:28:00.299Z,1006.49
2023-03-27T10:29:00.331Z,1006.49
2023-03-27T10:30:00.317Z,1006.48
2023-03-27T10:31:00.265Z,1006.50
2023-03-27T10:32:00.297Z,1006.47
2023-03-27T10:33:00.280Z,1006.50
2023-03-27T10:34:00.253Z,1006.49
2023-03-27T10:35:00.276Z,1006.47
2023-03-27T10:36:00.250Z,1006.48
2023-03-27T10:37:00.192Z,1006.47
2023-03-27T10:38:00.185Z,1006.48
2023-03-27T10:39:00.180Z,1006.47
2023-03-27T10:40:00.221Z,1006.48
2023-03-27T10:41:00.220Z,1006.51
2023-03-27T10:42:00.158Z,1006.52
2023-03-27T10:43:00.126Z,1006.51
2023-03-27T10:44:00.119Z,1006.49
2023-03-27T10:45:00.164Z,1006.53
2023-03-27T10:46:00.169Z,1006.48
2023-03-27T10:47:00.144Z,1006.53
2023-03-27T10:48:00.156Z,1006.52
2023-03-27T10:49:00.070Z,1006.60
2023-03-27T10:50:00.093Z,1006.54
2023-03-27T10:51:00.044Z,1006.58
2023-03-27T10:52:00.037Z,1006.58
2023-03-27T10:53:00.114Z,1006.58
2023-03-27T10:54:00.112Z,1006.58
2023-03-27T10:55:00.041Z,1006.53
2023-03-27T10:55:59.992Z,1006.56
2023-03-27T10:57:00.054Z,1006.54
2023-03-27T10:57:59.962Z,1006.58
2023-03-27T10:58:59.975Z,1006.54
2023-03-27T10:59:59.961Z,1006.57
2023-03-27T11:01:00.275Z,1006.53
2023-03-27T11:02:00.016Z,1006.58
2023-03-27T11:02:59.950Z,1006.61
2023-03-27T11:03:59.938Z,1006.57
2023-03-27T11:04:59.949Z,1006.69
2023-03-27T11:05:59.887Z,1006.74
2023-03-27T11:06:59.877Z,1006.63
2023-03-27T11:07:59.909Z,1006.66
2023-03-27T11:08:59.849Z,1006.68
2023-03-27T11:09:59.919Z,1006.73
2023-03-27T11:10:59.841Z,1006.77
2023-03-27T11:11:59.826Z,1006.76
2023-03-27T11:12:59.833Z,1006.79
2023-03-27T11:13:59.818Z,1006.79
2023-03-27T11:14:59.783Z,1006.78
2023-03-27T11:15:59.835Z,1006.85
2023-03-27T11:16:59.829Z,1006.84
2023-03-27T11:17:59.792Z,1006.86
2023-03-27T11:18:59.737Z,1006.93
2023-03-27T11:19:59.740Z,1006.91
2023-03-27T11:20:59.767Z,1006.92
2023-03-27T11:21:59.715Z,1006.96
2023-03-27T11:22:59.712Z,1006.99
2023-03-27T11:23:59.721Z,1007.01
2023-03-27T11:24:59.676Z,1007.00
2023-03-27T11:25:59.719Z,1007.03
2023-03-27T11:26:59.730Z,1007.02
2023-03-27T11:27:59.663Z,1007.06
2023-03-27T11:28:59.649Z,1007.07
2023-03-27T11:29:59.646Z,1007.11
2023-03-27T11:31:13.020Z,1007.21
2023-03-27T11:31:59.669Z,1007.19
2023-03-27T11:32:59.589Z,1007.34
2023-03-27T11:33:59.595Z,1007.24
2023-03-27T11:35:00.465Z,1007.33
2023-03-27T11:35:59.624Z,1007.34
2023-03-27T11:36:59.561Z,1007.36
2023-03-27T11:37:59.541Z,1007.43
2023-03-27T11:38:59.530Z,1007.50
2023-03-27T11:39:59.514Z,1007.46
2023-03-27T11:40:59.820Z,1007.46
2023-03-27T11:41:59.528Z,1007.45
2023-03-27T11:42:59.486Z,1007.52
2023-03-27T11:43:59.480Z,1007.52
2023-03-27T11:44:59.467Z,1007.49
2023-03-27T11:45:59.503Z,1007.49
2023-03-27T11:46:59.446Z,1007.50
2023-03-27T11:47:59.456Z,1007.46
2023-03-27T11:48:59.428Z,1007.46
2023-03-27T11:49:59.408Z,1007.45
2023-03-27T11:50:59.573Z,1007.45
2023-03-27T11:51:59.398Z,1007.44
2023-03-27T11:52:59.387Z,1007.45
2023-03-27T11:53:59.391Z,1007.43
2023-03-27T11:54:59.370Z,1007.45
2023-03-27T11:55:59.389Z,1007.45
2023-03-27T11:56:59.498Z,1007.43
2023-03-27T11:57:59.331Z,1007.38
2023-03-27T11:58:59.344Z,1007.46
2023-03-27T11:59:59.323Z,1007.46
2023-03-27T12:00:59.370Z,1007.46
2023-03-27T12:01:59.352Z,1007.44
2023-03-27T12:02:59.369Z,1007.45
2023-03-27T12:03:59.487Z,1007.47
2023-03-27T12:04:59.259Z,1007.47
2023-03-27T12:05:59.255Z,1007.53
2023-03-27T12:07:04.349Z,1007.50